createdAt,value
2017-08-21T00:01:29.913Z,3.90
2017-08-21T00:03:57.458Z,4.17
2017-08-21T00:06:25.790Z,4.40
2017-08-21T00:08:53.330Z,3.97
2017-08-21T00:11:20.892Z,4.70
2017-08-21T00:13:48.454Z,4.10
2017-08-21T00:16:16.027Z,4.60
2017-08-21T00:18:43.567Z,4.53
2017-08-21T00:21:11.103Z,4.20
2017-08-21T00:23:39.407Z,4.77
2017-08-21T00:26:06.937Z,4.13
2017-08-21T00:28:35.261Z,3.90
2017-08-21T00:31:02.801Z,3.50
2017-08-21T00:33:30.364Z,4.40
2017-08-21T00:35:57.894Z,3.93
2017-08-21T00:38:26.216Z,3.83
2017-08-21T00:40:53.753Z,4.57
2017-08-21T00:43:21.295Z,3.83
2017-08-21T00:45:49.602Z,3.67
2017-08-21T00:48:17.139Z,4.50
2017-08-21T00:50:45.470Z,3.80
2017-08-21T00:53:13.031Z,4.17
2017-08-21T00:55:40.571Z,3.67
2017-08-21T00:58:08.114Z,4.87
2017-08-21T01:00:35.651Z,4.17
2017-08-21T01:03:03.946Z,4.57
2017-08-21T01:05:31.547Z,3.90
2017-08-21T01:07:59.088Z,4.40
2017-08-21T01:10:26.610Z,3.47
2017-08-21T01:12:54.153Z,3.67
2017-08-21T01:15:21.724Z,3.90
2017-08-21T01:17:49.255Z,3.87
2017-08-21T01:20:16.815Z,3.70
2017-08-21T01:22:44.347Z,3.67
2017-08-21T01:25:11.878Z,3.60
2017-08-21T01:27:39.415Z,3.80
2017-08-21T01:30:06.946Z,3.80
2017-08-21T01:32:34.482Z,4.03
2017-08-21T01:35:02.015Z,3.87
2017-08-21T01:37:30.322Z,3.90
2017-08-21T01:39:57.910Z,3.70
2017-08-21T01:42:25.441Z,3.80
2017-08-21T01:44:52.975Z,3.43
2017-08-21T01:47:44.458Z,2.87
2017-08-21T01:50:11.991Z,3.20
2017-08-21T01:52:39.545Z,3.60
2017-08-21T01:55:07.078Z,3.43
2017-08-21T01:57:35.495Z,3.53
2017-08-21T02:00:03.079Z,3.63
2017-08-21T02:02:30.651Z,3.90
2017-08-21T02:04:58.187Z,3.80
2017-08-21T02:07:25.751Z,3.00
2017-08-21T02:09:53.291Z,3.40
2017-08-21T02:12:20.835Z,3.40
2017-08-21T02:14:48.358Z,3.47
2017-08-21T02:17:16.662Z,3.80
2017-08-21T02:19:44.250Z,3.90
2017-08-21T02:22:11.778Z,3.90
2017-08-21T02:24:39.338Z,3.87
2017-08-21T02:27:06.931Z,3.53
2017-08-21T02:29:34.591Z,3.60
2017-08-21T02:32:02.128Z,3.60
2017-08-21T02:34:29.678Z,3.77
2017-08-21T02:36:57.202Z,3.47
2017-08-21T02:39:24.845Z,3.43
2017-08-21T02:41:52.395Z,4.20
2017-08-21T02:44:19.967Z,3.90
2017-08-21T02:46:47.491Z,3.30
2017-08-21T02:49:15.034Z,3.93
2017-08-21T02:51:43.358Z,3.60
2017-08-21T02:54:10.889Z,4.33
2017-08-21T02:56:38.422Z,4.30
2017-08-21T02:59:05.962Z,3.20
2017-08-21T03:01:33.498Z,3.40
2017-08-21T03:04:01.795Z,3.50
2017-08-21T03:06:29.352Z,4.00
2017-08-21T03:08:56.890Z,3.80
2017-08-21T03:11:25.211Z,3.83
2017-08-21T03:13:52.734Z,3.60
2017-08-21T03:16:21.058Z,3.67
2017-08-21T03:18:48.587Z,3.60
2017-08-21T03:21:16.142Z,4.20
2017-08-21T03:23:44.463Z,4.20
2017-08-21T03:26:11.993Z,4.30
2017-08-21T03:28:39.523Z,3.50
2017-08-21T03:31:07.048Z,3.60
2017-08-21T03:33:34.582Z,3.93
2017-08-21T03:36:02.114Z,3.80
2017-08-21T03:38:29.670Z,3.70
2017-08-21T03:40:57.999Z,3.67
2017-08-21T03:43:25.551Z,3.90
2017-08-21T03:45:53.122Z,4.07
2017-08-21T03:48:20.682Z,4.50
2017-08-21T03:50:48.211Z,4.80
2017-08-21T03:53:15.762Z,4.80
2017-08-21T03:55:43.290Z,4.00
2017-08-21T03:58:10.858Z,4.30
2017-08-21T04:00:38.387Z,3.83
2017-08-21T04:03:05.946Z,4.57
2017-08-21T04:05:33.476Z,4.00
2017-08-21T04:08:01.011Z,4.20
2017-08-21T04:10:29.338Z,3.90
2017-08-21T04:12:56.897Z,3.57
2017-08-21T04:15:24.442Z,3.80
2017-08-21T04:17:51.972Z,3.93
2017-08-21T04:20:19.526Z,4.20
2017-08-21T04:22:47.054Z,4.00
2017-08-21T04:25:14.609Z,4.10
2017-08-21T04:27:42.143Z,3.93
2017-08-21T04:30:09.718Z,3.87
2017-08-21T04:32:37.251Z,3.47
2017-08-21T04:35:04.786Z,3.97
2017-08-21T04:37:32.315Z,3.83
2017-08-21T04:39:59.847Z,4.30
2017-08-21T04:42:27.394Z,3.60
2017-08-21T04:44:54.928Z,3.97
2017-08-21T04:47:22.483Z,3.97
2017-08-21T04:49:50.014Z,4.03
2017-08-21T04:52:17.573Z,4.20
2017-08-21T04:54:45.878Z,3.50
2017-08-21T04:57:13.476Z,4.23
2017-08-21T04:59:41.011Z,5.20
2017-08-21T05:02:08.566Z,4.07
2017-08-21T05:04:36.144Z,3.97
2017-08-21T05:07:03.711Z,3.57
2017-08-21T05:09:31.246Z,3.93
2017-08-21T05:11:58.774Z,3.70
2017-08-21T05:14:27.073Z,4.50
2017-08-21T05:16:54.610Z,3.90
2017-08-21T05:19:22.931Z,3.70
2017-08-21T05:21:50.454Z,4.10
2017-08-21T05:24:18.781Z,4.03
2017-08-21T05:26:46.314Z,3.93
2017-08-21T05:29:13.866Z,3.80
2017-08-21T05:31:41.395Z,4.20
2017-08-21T05:34:08.954Z,4.70
2017-08-21T05:36:36.478Z,4.10
2017-08-21T05:39:04.031Z,3.93
2017-08-21T05:41:31.571Z,3.93
2017-08-21T05:43:59.140Z,3.60
2017-08-21T05:46:26.670Z,3.87
2017-08-21T05:48:54.206Z,3.93
2017-08-21T05:51:21.738Z,4.30
2017-08-21T05:53:49.262Z,3.70
2017-08-21T05:56:16.818Z,4.80
2017-08-21T05:58:44.395Z,3.47
2017-08-21T06:01:11.950Z,4.07
2017-08-21T06:03:39.481Z,3.70
2017-08-21T06:06:07.034Z,3.63
2017-08-21T06:08:35.355Z,3.80
2017-08-21T06:11:02.887Z,3.50
2017-08-21T06:13:30.474Z,3.73
2017-08-21T06:15:58.043Z,4.03
2017-08-21T06:18:25.598Z,3.27
2017-08-21T06:20:53.135Z,3.47
2017-08-21T06:23:20.678Z,3.50
2017-08-21T06:25:48.250Z,3.10
2017-08-21T06:28:15.779Z,4.07
2017-08-21T06:30:43.318Z,3.83
2017-08-21T06:33:10.854Z,3.73
2017-08-21T06:35:38.399Z,3.00
2017-08-21T06:38:05.950Z,5.40
2017-08-21T06:40:34.167Z,4.77
2017-08-21T06:43:01.709Z,3.60
2017-08-21T06:45:29.251Z,4.77
2017-08-21T06:47:56.787Z,8.87
2017-08-21T06:50:24.332Z,5.57
2017-08-21T06:52:52.639Z,6.60
2017-08-21T06:55:20.231Z,4.57
2017-08-21T06:57:47.772Z,4.50
2017-08-21T07:00:34.730Z,3.73
2017-08-21T07:03:02.269Z,3.40
2017-08-21T07:05:29.812Z,3.50
2017-08-21T07:07:57.358Z,3.67
2017-08-21T07:10:24.894Z,3.40
2017-08-21T07:12:53.711Z,3.20
2017-08-21T07:15:21.250Z,4.00
2017-08-21T07:17:49.575Z,3.17
2017-08-21T07:20:17.156Z,3.67
2017-08-21T07:22:44.804Z,3.00
2017-08-21T07:25:12.342Z,3.30
2017-08-21T07:27:39.876Z,3.47
2017-08-21T07:30:07.420Z,3.50
2017-08-21T07:32:35.728Z,3.10
2017-08-21T07:35:03.258Z,3.40
2017-08-21T07:37:31.558Z,3.33
2017-08-21T07:40:00.011Z,3.07
2017-08-21T07:42:27.542Z,4.17
2017-08-21T07:44:55.099Z,3.43
2017-08-21T07:47:22.630Z,3.23
2017-08-21T07:49:50.194Z,3.60
2017-08-21T07:52:17.726Z,3.10
2017-08-21T07:54:45.298Z,3.37
2017-08-21T07:57:12.834Z,3.00
2017-08-21T07:59:40.362Z,3.40
2017-08-21T08:02:07.897Z,3.10
2017-08-21T08:04:35.431Z,3.50
2017-08-21T08:07:02.958Z,3.20
2017-08-21T08:09:30.491Z,3.37
2017-08-21T08:11:58.022Z,3.07
2017-08-21T08:14:26.323Z,3.33
2017-08-21T08:16:53.870Z,2.70
2017-08-21T08:19:22.198Z,3.23
2017-08-21T08:21:49.775Z,2.80
2017-08-21T08:24:17.299Z,4.00
2017-08-21T08:26:44.853Z,3.53
2017-08-21T08:29:12.382Z,3.13
2017-08-21T08:31:40.715Z,3.63
2017-08-21T08:34:08.279Z,2.77
2017-08-21T08:36:35.838Z,3.10
2017-08-21T08:39:03.397Z,2.93
2017-08-21T08:41:30.935Z,3.50
2017-08-21T08:43:58.525Z,3.27
2017-08-21T08:46:26.090Z,2.83
2017-08-21T08:48:53.619Z,2.90
2017-08-21T08:51:21.146Z,2.80
2017-08-21T08:53:48.669Z,3.30
2017-08-21T08:56:16.190Z,3.43
2017-08-21T08:58:43.747Z,3.13
2017-08-21T09:01:11.291Z,3.90
2017-08-21T09:03:38.842Z,3.40
2017-08-21T09:06:06.368Z,3.20
2017-08-21T09:08:33.923Z,3.00
2017-08-21T09:11:01.461Z,2.67
2017-08-21T09:13:29.010Z,2.97
2017-08-21T09:15:56.561Z,3.27
2017-08-21T09:18:24.886Z,3.30
2017-08-21T09:20:52.440Z,2.53
2017-08-21T09:23:19.999Z,3.00
2017-08-21T09:25:47.533Z,2.00
2017-08-21T09:28:15.055Z,2.60
2017-08-21T09:30:42.581Z,3.00
2017-08-21T09:33:10.111Z,2.90
2017-08-21T09:35:37.647Z,2.80
2017-08-21T09:38:05.192Z,2.83
2017-08-21T09:40:32.751Z,3.00
2017-08-21T09:43:00.271Z,2.47
2017-08-21T09:45:27.819Z,2.63
2017-08-21T09:47:55.337Z,3.07
2017-08-21T09:50:22.890Z,2.40
2017-08-21T09:52:50.416Z,2.50
2017-08-21T09:55:17.982Z,2.53
2017-08-21T09:57:45.515Z,2.43
2017-08-21T10:00:13.039Z,2.33
2017-08-21T10:02:40.562Z,2.70
2017-08-21T10:05:08.090Z,2.73
2017-08-21T10:07:35.648Z,2.50
2017-08-21T10:10:03.190Z,2.70
2017-08-21T10:12:30.748Z,2.63
2017-08-21T10:14:59.042Z,2.30
2017-08-21T10:17:26.607Z,2.23
2017-08-21T10:19:54.155Z,2.20
2017-08-21T10:22:21.732Z,2.50
2017-08-21T10:25:23.819Z,2.27
2017-08-21T10:27:57.167Z,2.20
2017-08-21T10:30:24.702Z,2.20
2017-08-21T10:32:52.258Z,2.33
2017-08-21T10:35:19.788Z,2.60
2017-08-21T10:37:47.316Z,2.33
2017-08-21T10:40:14.911Z,2.43
2017-08-21T10:42:42.578Z,2.80
2017-08-21T10:45:10.103Z,2.40
2017-08-21T10:47:37.626Z,2.43
2017-08-21T10:50:05.158Z,2.73
2017-08-21T10:52:32.703Z,2.07
2017-08-21T10:55:00.239Z,2.30
2017-08-21T10:57:27.771Z,2.20
2017-08-21T10:59:55.302Z,1.93
2017-08-21T11:02:22.860Z,1.90
2017-08-21T11:04:50.386Z,2.63
2017-08-21T11:07:17.921Z,2.50
2017-08-21T11:09:45.459Z,2.50
2017-08-21T11:12:13.022Z,2.20
2017-08-21T11:14:40.546Z,2.30
2017-08-21T11:17:08.080Z,2.37
2017-08-21T11:19:35.650Z,2.03
2017-08-21T11:22:03.190Z,2.60
2017-08-21T11:24:30.730Z,2.30
2017-08-21T11:26:58.259Z,2.57
2017-08-21T11:29:25.795Z,2.73
2017-08-21T11:31:53.331Z,2.13
2017-08-21T11:34:20.872Z,2.00
2017-08-21T11:36:48.406Z,2.20
2017-08-21T11:39:15.939Z,2.60
2017-08-21T11:41:43.478Z,2.20
2017-08-21T11:44:11.006Z,2.50
2017-08-21T11:46:38.534Z,2.13
2017-08-21T11:49:06.075Z,2.23
2017-08-21T11:51:33.611Z,2.50
2017-08-21T11:54:01.143Z,2.70
2017-08-21T11:56:28.680Z,2.37
2017-08-21T11:58:56.215Z,2.53
2017-08-21T12:01:23.790Z,2.73
2017-08-21T12:03:51.336Z,2.23
2017-08-21T12:06:18.874Z,2.40
2017-08-21T12:08:46.407Z,2.90
2017-08-21T12:11:13.938Z,2.20
2017-08-21T12:13:41.466Z,2.40
2017-08-21T12:16:08.999Z,2.50
2017-08-21T12:18:36.539Z,2.30
2017-08-21T12:21:04.074Z,2.43
2017-08-21T12:23:31.663Z,2.10
2017-08-21T12:25:59.205Z,2.80
2017-08-21T12:28:27.357Z,3.10
2017-08-21T12:30:54.891Z,2.23
2017-08-21T12:33:22.511Z,2.57
2017-08-21T12:35:50.045Z,2.30
2017-08-21T12:38:17.620Z,2.33
2017-08-21T12:40:45.151Z,2.50
2017-08-21T12:43:12.724Z,2.50
2017-08-21T12:45:40.266Z,2.20
2017-08-21T12:48:07.879Z,2.20
2017-08-21T12:50:35.416Z,2.40
2017-08-21T12:53:02.960Z,2.50
2017-08-21T12:55:30.500Z,2.47
2017-08-21T12:57:58.038Z,2.63
2017-08-21T13:00:25.584Z,2.93
2017-08-21T13:02:53.128Z,2.50
2017-08-21T13:05:20.661Z,2.47
2017-08-21T13:07:48.199Z,2.30
2017-08-21T13:10:15.734Z,3.00
2017-08-21T13:12:43.287Z,2.30
2017-08-21T13:15:10.840Z,2.50
2017-08-21T13:17:38.370Z,2.60
2017-08-21T13:20:05.922Z,2.60
2017-08-21T13:22:33.454Z,2.17
2017-08-21T13:25:01.022Z,2.80
2017-08-21T13:27:28.551Z,2.60
2017-08-21T13:29:56.102Z,2.50
2017-08-21T13:32:23.630Z,2.70
2017-08-21T13:34:51.163Z,2.40
2017-08-21T13:40:11.416Z,2.60
2017-08-21T13:42:38.952Z,2.53
2017-08-21T13:45:06.501Z,3.00
2017-08-21T13:47:34.839Z,3.30
2017-08-21T13:50:02.371Z,2.93
2017-08-21T13:52:29.922Z,2.03
2017-08-21T13:54:57.478Z,2.57
2017-08-21T13:57:25.037Z,2.53
2017-08-21T14:02:26.606Z,2.47
2017-08-21T14:04:54.141Z,2.40
2017-08-21T14:07:21.666Z,2.50
2017-08-21T14:09:49.194Z,2.47
2017-08-21T14:12:16.737Z,2.40
2017-08-21T14:14:44.295Z,2.83
2017-08-21T14:17:11.836Z,2.47
2017-08-21T14:19:39.404Z,2.50
2017-08-21T14:22:06.939Z,2.60
2017-08-21T14:24:34.498Z,2.27
2017-08-21T14:27:02.036Z,2.47
2017-08-21T14:29:29.598Z,2.83
2017-08-21T14:31:57.139Z,2.50
2017-08-21T14:34:24.743Z,2.60
2017-08-21T14:36:52.280Z,2.63
2017-08-21T14:39:19.816Z,2.73
2017-08-21T14:41:47.358Z,2.77
2017-08-21T14:44:14.894Z,3.03
2017-08-21T14:46:42.451Z,2.83
2017-08-21T14:49:09.999Z,3.10
2017-08-21T14:51:37.571Z,2.87
2017-08-21T14:54:05.110Z,3.77
2017-08-21T14:56:32.666Z,2.93
2017-08-21T14:59:00.191Z,2.60
2017-08-21T15:01:27.751Z,3.00
2017-08-21T15:03:55.278Z,2.97
2017-08-21T15:06:22.918Z,3.23
2017-08-21T15:08:50.446Z,3.07
2017-08-21T15:11:18.042Z,2.83
2017-08-21T15:13:45.567Z,2.90
2017-08-21T15:16:13.098Z,2.73
2017-08-21T15:18:40.633Z,2.80
2017-08-21T15:21:08.157Z,2.73
2017-08-21T15:23:35.692Z,3.10
2017-08-21T15:26:03.210Z,2.93
2017-08-21T15:28:30.744Z,3.17
2017-08-21T15:30:58.283Z,2.67
2017-08-21T15:33:25.810Z,2.83
2017-08-21T15:35:53.351Z,3.30
2017-08-21T15:38:21.779Z,2.93
2017-08-21T15:40:49.307Z,3.07
2017-08-21T15:43:16.836Z,3.30
2017-08-21T15:45:44.367Z,2.93
2017-08-21T15:48:11.886Z,2.97
2017-08-21T15:50:39.414Z,3.30
2017-08-21T15:53:06.942Z,3.43
2017-08-21T15:55:34.473Z,3.47
2017-08-21T15:58:02.004Z,3.27
2017-08-21T16:00:29.526Z,3.40
2017-08-21T16:02:57.078Z,3.20
2017-08-21T16:05:24.610Z,2.93
2017-08-21T16:07:52.190Z,3.00
2017-08-21T16:10:19.736Z,3.00
2017-08-21T16:12:47.289Z,2.97
2017-08-21T16:15:14.824Z,2.80
2017-08-21T16:17:42.367Z,3.00
2017-08-21T16:20:09.909Z,3.23
2017-08-21T16:22:37.447Z,3.07
2017-08-21T16:25:04.988Z,3.20
2017-08-21T16:27:32.538Z,2.83
2017-08-21T16:30:00.079Z,3.10
2017-08-21T16:32:27.618Z,3.00
2017-08-21T16:34:55.170Z,2.67
2017-08-21T16:37:22.726Z,2.90
2017-08-21T16:39:50.302Z,3.00
2017-08-21T16:42:17.835Z,2.87
2017-08-21T16:44:45.372Z,3.30
2017-08-21T16:47:12.907Z,3.10
2017-08-21T16:49:40.450Z,2.77
2017-08-21T16:52:07.987Z,2.97
2017-08-21T16:54:35.523Z,3.17
2017-08-21T16:57:03.051Z,3.30
2017-08-21T16:59:30.587Z,2.50
2017-08-21T17:01:58.163Z,3.13
2017-08-21T17:04:25.694Z,3.00
2017-08-21T17:06:53.994Z,2.90
2017-08-21T17:09:21.539Z,3.50
2017-08-21T17:11:49.082Z,3.00
2017-08-21T17:14:16.610Z,2.90
2017-08-21T17:16:44.268Z,2.73
2017-08-21T17:19:11.794Z,3.07
2017-08-21T17:21:39.346Z,3.50
2017-08-21T17:24:06.918Z,2.53
2017-08-21T17:26:34.458Z,2.77
2017-08-21T17:29:01.991Z,2.70
2017-08-21T17:31:29.523Z,3.40
2017-08-21T17:33:57.055Z,3.30
2017-08-21T17:36:24.607Z,3.10
2017-08-21T17:38:52.147Z,3.30
2017-08-21T17:41:19.679Z,3.70
2017-08-21T17:43:47.219Z,3.23
2017-08-21T17:46:14.758Z,3.63
2017-08-21T17:48:42.307Z,2.70
2017-08-21T17:51:09.839Z,2.70
2017-08-21T17:56:11.400Z,3.00
2017-08-21T17:58:38.999Z,3.23
2017-08-21T18:01:07.300Z,3.20
2017-08-21T18:03:34.835Z,3.03
2017-08-21T18:06:02.374Z,3.00
2017-08-21T18:08:29.915Z,3.20
2017-08-21T18:10:57.447Z,3.17
2017-08-21T18:13:24.994Z,3.60
2017-08-21T18:15:52.552Z,2.73
2017-08-21T18:18:20.085Z,3.30
2017-08-21T18:20:47.618Z,3.63
2017-08-21T18:23:15.146Z,3.50
2017-08-21T18:25:42.679Z,2.93
2017-08-21T18:28:10.996Z,8.27
2017-08-21T18:30:38.537Z,11.27
2017-08-21T18:33:06.066Z,3.53
2017-08-21T18:35:33.643Z,3.30
2017-08-21T18:38:01.175Z,7.13
2017-08-21T18:40:28.707Z,4.97
2017-08-21T18:42:56.238Z,3.80
2017-08-21T18:45:23.767Z,3.47
2017-08-21T18:47:51.294Z,3.53
2017-08-21T18:50:18.827Z,4.47
2017-08-21T18:52:46.363Z,4.27
2017-08-21T18:55:14.076Z,3.80
2017-08-21T18:57:41.682Z,3.63
2017-08-21T19:00:09.339Z,3.97
2017-08-21T19:02:37.414Z,3.30
2017-08-21T19:05:05.280Z,3.87
2017-08-21T19:07:32.982Z,4.80
2017-08-21T19:10:00.686Z,3.17
2017-08-21T19:12:28.351Z,3.13
2017-08-21T19:14:55.961Z,3.00
2017-08-21T19:17:23.841Z,3.73
2017-08-21T19:19:51.492Z,3.90
2017-08-21T19:22:19.192Z,4.10
2017-08-21T19:24:47.118Z,3.00
2017-08-21T19:27:14.705Z,3.50
2017-08-21T19:29:42.394Z,3.40
2017-08-21T19:32:10.026Z,3.80
2017-08-21T19:34:37.890Z,3.67
2017-08-21T19:37:05.518Z,3.37
2017-08-21T19:39:33.213Z,3.40
2017-08-21T19:42:00.809Z,3.80
2017-08-21T19:44:28.441Z,3.97
2017-08-21T19:46:55.983Z,3.50
2017-08-21T19:49:23.604Z,3.63
2017-08-21T19:51:51.159Z,3.47
2017-08-21T19:54:18.694Z,4.87
2017-08-21T19:56:46.226Z,3.30
2017-08-21T19:59:13.765Z,3.63
2017-08-21T20:01:41.323Z,3.90
2017-08-21T20:04:08.854Z,4.03
2017-08-21T20:06:36.390Z,3.63
2017-08-21T20:09:03.947Z,4.53
2017-08-21T20:11:31.487Z,4.27
2017-08-21T20:13:59.022Z,4.40
2017-08-21T20:16:26.595Z,3.80
2017-08-21T20:18:54.123Z,3.70
2017-08-21T20:21:21.669Z,4.00
2017-08-21T20:23:49.222Z,4.00
2017-08-21T20:26:16.755Z,4.83
2017-08-21T20:28:44.290Z,4.10
2017-08-21T20:31:11.845Z,3.80
2017-08-21T20:33:39.390Z,4.80
2017-08-21T20:36:06.922Z,5.07
2017-08-21T20:38:34.458Z,4.50
2017-08-21T20:41:01.996Z,4.63
2017-08-21T20:43:29.540Z,5.30
2017-08-21T20:45:57.075Z,4.10
2017-08-21T20:48:24.626Z,4.13
2017-08-21T20:50:52.159Z,4.10
2017-08-21T20:53:19.691Z,4.53
2017-08-21T20:55:47.252Z,3.90
2017-08-21T20:58:14.779Z,4.43
2017-08-21T21:00:42.311Z,4.53
2017-08-21T21:03:09.874Z,4.37
2017-08-21T21:05:37.407Z,4.70
2017-08-21T21:08:04.947Z,4.63
2017-08-21T21:10:32.500Z,5.63
2017-08-21T21:13:00.027Z,4.50
2017-08-21T21:15:27.587Z,5.00
2017-08-21T21:17:55.119Z,4.90
2017-08-21T21:20:22.676Z,4.80
2017-08-21T21:22:50.207Z,4.97
2017-08-21T21:25:17.767Z,5.47
2017-08-21T21:27:45.304Z,12.37
2017-08-21T21:30:12.890Z,5.83
2017-08-21T21:32:40.438Z,5.33
2017-08-21T21:35:07.989Z,5.40
2017-08-21T21:37:35.531Z,5.00
2017-08-21T21:40:03.062Z,4.83
2017-08-21T21:42:30.590Z,4.37
2017-08-21T21:44:58.148Z,5.40
2017-08-21T21:47:25.712Z,5.00
2017-08-21T21:49:53.266Z,5.43
2017-08-21T21:52:20.855Z,4.83
2017-08-21T21:54:48.386Z,4.67
2017-08-21T21:57:15.947Z,4.23
2017-08-21T21:59:43.478Z,4.90
2017-08-21T22:02:11.046Z,5.07
2017-08-21T22:04:38.574Z,4.90
2017-08-21T22:07:06.110Z,5.17
2017-08-21T22:09:33.654Z,4.30
2017-08-21T22:12:01.196Z,4.93
2017-08-21T22:14:28.746Z,5.00
2017-08-21T22:16:56.274Z,4.10
2017-08-21T22:19:23.831Z,4.33
2017-08-21T22:21:51.375Z,4.97
2017-08-21T22:24:18.935Z,4.67
2017-08-21T22:26:46.467Z,5.00
2017-08-21T22:29:14.053Z,4.97
2017-08-21T22:31:41.607Z,4.60
2017-08-21T22:34:15.003Z,4.70
2017-08-21T22:36:42.538Z,4.77
2017-08-21T22:39:10.092Z,4.50
2017-08-21T22:41:37.636Z,4.00
2017-08-21T22:44:05.171Z,4.70
2017-08-21T22:46:32.699Z,4.63
2017-08-21T22:49:00.226Z,4.30
2017-08-21T22:51:27.786Z,4.93
2017-08-21T22:53:55.331Z,4.13
2017-08-21T22:56:22.887Z,4.50
2017-08-21T22:58:50.430Z,5.10
2017-08-21T23:01:35.335Z,4.73
2017-08-21T23:04:02.867Z,5.30
2017-08-21T23:06:30.400Z,5.50
2017-08-21T23:08:57.932Z,6.03
2017-08-21T23:11:25.458Z,5.77
2017-08-21T23:13:52.982Z,4.73
2017-08-21T23:16:20.551Z,5.30
2017-08-21T23:18:48.090Z,6.03
2017-08-21T23:21:15.628Z,6.10
2017-08-21T23:23:43.202Z,6.40
2017-08-21T23:26:10.727Z,5.97
2017-08-21T23:28:38.262Z,5.10
2017-08-21T23:31:05.795Z,5.60
2017-08-21T23:33:33.327Z,5.40
2017-08-21T23:36:00.850Z,5.90
2017-08-21T23:38:28.378Z,5.90
2017-08-21T23:40:55.906Z,5.20
2017-08-21T23:43:23.435Z,5.10
2017-08-21T23:45:50.963Z,5.57
2017-08-21T23:48:18.487Z,4.97
2017-08-21T23:50:46.015Z,5.80
2017-08-21T23:53:13.545Z,6.40
2017-08-21T23:55:41.075Z,6.27
2017-08-21T23:58:08.602Z,6.10
